Latest Coastal Weather Observations for Ballina

IDN60701

Issued at 2:31 am EDT Tuesday 23 December 2014 (issued every 10 minutes, with the page automatically refreshed every 10 minutes)

About coastal observations | Map of coastal stations | Coastal observations for NSW | Marine services | Other Formats
Station Details ID: 058198 Name: BALLINA AIRPORT AWS Lat: -28.84 Lon: 153.56 Height: 1.3 m
Data from the previous 72 hours. | See also: Recent months at Ballina
Date/Time
EDT
Temp

°C
Wind Pressure Rain
since 9am
mm
Weather Cloud Vis
km
Sea
Height
m
Swell
Dir
 
Speed
knots
Gust
knots
hPa Trend Height
m
Period
s
Dir
23/02:30am 18.2 NW 1 3 1016.7 - 0.0 - Partly cloudy 10 - - - -
23/02:00am 18.3 NW 1 3 1017.2 - 0.0 - Partly cloudy 10 - - - -
23/01:30am 18.3 WSW 3 4 1017.4 - 0.0 - Partly cloudy 10 - - - -
23/01:00am 17.3 W 5 7 1017.6 - 0.0 - Partly cloudy 10 - - - -
23/12:30am 17.4 W 2 4 1017.8 - 0.0 - Partly cloudy 10 - - - -
23/12:00am 17.8 N 3 4 1018.0 - 0.0 - - 45 - - - -
 
Date/Time
EDT
Temp

°C
Wind Pressure Rain
since 9am
mm
Weather Cloud Vis
km
Sea
Height
m
Swell
Dir
 
Speed
knots
Gust
knots
hPa Trend Height
m
Period
s
Dir
22/11:30pm 19.2 CALM 0 0 1018.2 - 0.0 - Partly cloudy 10 - - - -
22/11:00pm 20.6 ENE 3 4 1018.3 - 0.0 - Partly cloudy 10 - - - -
22/10:30pm 21.0 E 5 9 1018.1 - 0.0 - Partly cloudy 10 - - - -
22/10:00pm 21.4 E 6 8 1017.9 - 0.0 - Partly cloudy 10 - - - -
22/09:30pm 21.4 E 4 6 1018.1 - 0.0 - Partly cloudy 10 - - - -
22/09:00pm 21.6 E 6 9 1017.8 - 0.0 - Mostly clear 10 - - - -
22/08:30pm 21.5 E 7 9 1017.7 - 0.0 - Partly cloudy 10 - - - -
22/08:00pm 21.8 E 5 7 1017.7 - 0.0 - Partly cloudy 10 - - - -
22/07:30pm 22.7 E 6 11 1017.5 - 0.0 - Partly cloudy 10 - - - -
22/07:00pm 23.6 E 9 13 1017.0 - 0.0 - Partly cloudy 10 - - - -
22/06:30pm 23.8 E 10 14 1016.5 - 0.0 - - 10 - - - -
22/06:00pm 24.9 E 9 14 1016.4 - 0.0 - - 10 - - - -
22/05:30pm 24.6 E 10 13 1016.4 - 0.0 - Partly cloudy 10 - - - -
22/05:00pm 24.8 ENE 9 13 1016.5 - 0.0 - Partly cloudy 10 - - - -
22/04:30pm 25.5 ENE 9 12 1016.9 - 0.0 - Partly cloudy 8 - - - -
22/04:00pm 25.0 ENE 9 12 1017.3 - 0.0 - Partly cloudy 10 - - - -
22/03:30pm 25.9 E 10 15 1017.2 - 0.0 - Partly cloudy 10 - - - -
22/03:00pm 25.8 E 10 15 1017.4 - 0.0 - Mostly clear 10 - - - -
22/02:30pm 26.4 ENE 10 15 1017.6 - 0.0 - Partly cloudy 10 - - - -
22/02:00pm 26.2 E 9 14 1017.9 - 0.0 - Partly cloudy 10 - - - -
22/01:30pm 25.9 E 8 15 1018.4 - 0.0 - - 10 - - - -
22/01:00pm 26.2 ESE 9 15 1018.8 - 0.0 - Partly cloudy 10 - - - -
22/12:30pm 26.0 ESE 8 14 1019.1 - 0.0 - Partly cloudy 10 - - - -
22/12:00pm 25.3 ESE 10 15 1018.9 - 0.0 - Partly cloudy 10 - - - -
22/11:30am 26.2 SE 9 15 1019.0 - 0.0 - Partly cloudy 10 - - - -
22/11:00am 25.9 SE 9 13 1019.1 - 0.0 - Partly cloudy 10 - - - -
22/10:30am 25.7 E 7 12 1019.0 - 0.0 - Partly cloudy 10 - - - -
22/10:00am 25.3 SSE 8 12 1019.0 - 0.0 - Partly cloudy 10 - - - -
22/09:30am 25.0 SE 8 12 1018.8 - 0.0 - Partly cloudy 10 - - - -
22/09:00am 24.5 SE 6 9 1018.7 - 0.0 - Mostly clear 10 - - - -
22/08:30am 24.7 SSE 7 10 1018.6 - 0.0 - - 10 - - - -
22/08:00am 24.2 SE 4 6 1018.3 - 0.0 - - 10 - - - -
22/07:30am 22.6 WSW 3 5 1018.1 - 0.0 - - 10 - - - -
22/07:00am 20.5 CALM 0 0 1017.8 - 0.0 - - 10 - - - -
22/06:30am 17.9 CALM 0 3 1017.7 - 0.0 - - 10 - - - -
22/06:00am 17.8 WSW 1 3 1017.5 - 0.0 - - 10 - - - -
22/05:30am 18.0 CALM 0 0 1017.1 - 0.0 - Partly cloudy 10 - - - -
22/05:00am 18.1 WSW 4 5 1016.8 - 0.0 - Partly cloudy 10 - - - -
22/04:30am 17.6 WNW 1 5 1016.6 - 0.0 - Partly cloudy 10 - - - -
22/04:00am 18.0 CALM 0 0 1016.6 - 0.0 - Partly cloudy 10 - - - -
22/03:30am 17.7 WNW 3 4 1016.6 - 0.0 - Partly cloudy 10 - - - -
22/03:00am 18.5 WNW 1 3 1016.5 - 0.0 - - 10 - - - -
22/02:30am 18.9 ENE 4 5 1016.6 - 0.0 - - 10 - - - -
22/02:00am 19.7 S 3 4 1017.6 - 0.0 - Partly cloudy 10 - - - -
22/01:30am 20.9 WSW 3 4 1018.6 - 0.0 - Partly cloudy 10 - - - -
22/01:00am 21.7 NE 1 4 1018.8 - 0.0 - Partly cloudy 10 - - - -
22/12:30am 22.3 NE 5 7 1018.7 - 0.0 - Cloudy 10 - - - -
22/12:00am 22.0 ENE 5 8 1018.8 - 0.0 - Mostly cloudy 10 - - - -
 
Date/Time
EDT
Temp

°C
Wind Pressure Rain
since 9am
mm
Weather Cloud Vis
km
Sea
Height
m
Swell
Dir
 
Speed
knots
Gust
knots
hPa Trend Height
m
Period
s
Dir
21/11:30pm 21.6 ENE 7 9 1018.6 - 0.0 - Partly cloudy 10 - - - -
21/11:00pm 22.2 ENE 8 10 1018.7 - 0.0 - Cloudy 10 - - - -
21/10:30pm 22.2 ENE 7 9 1018.7 - 0.0 - Partly cloudy 10 - - - -
21/10:00pm 21.7 NE 7 10 1018.5 - 0.0 - Partly cloudy 10 - - - -
21/09:30pm 21.9 NE 8 11 1018.4 - 0.0 - Partly cloudy 10 - - - -
21/09:00pm 21.6 ENE 7 11 1018.4 - 0.0 - Partly cloudy 10 - - - -
21/08:30pm 22.0 NE 8 11 1018.1 - 0.0 - Partly cloudy 10 - - - -
21/08:00pm 22.2 ENE 10 12 1017.9 - 0.0 - Partly cloudy 10 - - - -
21/07:30pm 23.0 E 11 13 1017.4 - 0.0 - Cloudy 10 - - - -
21/07:00pm 23.4 ENE 11 15 1017.1 - 0.0 - Cloudy 10 - - - -
21/06:30pm 23.8 ENE 12 15 1016.8 - 0.0 - Cloudy 10 - - - -
21/06:00pm 24.2 ENE 12 16 1016.7 - 0.0 - Mostly cloudy 10 - - - -
21/05:30pm 24.0 ENE 14 17 1016.5 - 0.0 - - 10 - - - -
21/05:00pm 25.1 ENE 14 18 1016.5 - 0.0 - Partly cloudy 10 - - - -
21/04:30pm 25.5 ENE 12 16 1016.6 - 0.0 - Partly cloudy 10 - - - -
21/04:00pm 24.9 E 14 18 1016.6 - 0.0 - Partly cloudy 10 - - - -
21/03:30pm 26.1 ENE 12 17 1016.7 - 0.0 - Partly cloudy 10 - - - -
21/03:00pm 25.2 ENE 13 17 1016.8 - 0.0 - Mostly clear 10 - - - -
21/02:30pm 25.3 ENE 12 18 1017.2 - 0.0 - Partly cloudy 10 - - - -
21/02:00pm 26.2 ENE 13 16 1017.4 - 0.0 - Partly cloudy 10 - - - -
21/01:30pm 26.5 ENE 13 17 1017.7 - 0.0 - Partly cloudy 10 - - - -
21/01:00pm 25.6 E 12 16 1018.0 - 0.0 - Partly cloudy 10 - - - -
21/12:30pm 25.7 NE 10 14 1018.4 - 0.0 - Partly cloudy 10 - - - -
21/12:00pm 26.1 ENE 10 15 1018.8 - 0.0 - Cloudy 10 - - - -
21/11:30am 25.8 ENE 9 12 1018.8 - 0.0 - Partly cloudy 10 - - - -
21/11:00am 25.1 NNE 7 11 1019.0 - 0.0 - Partly cloudy 10 - - - -
21/10:30am 24.6 NE 8 10 1018.9 - 0.0 - Cloudy 10 - - - -
21/10:00am 24.2 ENE 7 12 1018.8 - 0.0 - Partly cloudy 10 - - - -
21/09:30am 24.8 ENE 8 13 1018.8 - 0.0 - Partly cloudy 10 - - - -
21/09:00am 24.4 NE 8 12 1018.6 - 0.0 - Cloudy 10 - - - -
21/08:30am 24.0 ENE 8 11 1018.7 - 0.0 - Cloudy 10 - - - -
21/08:00am 23.4 ENE 7 10 1018.4 - 0.0 - Partly cloudy 10 - - - -
21/07:30am 22.8 NE 5 7 1018.1 - 0.0 - Cloudy 10 - - - -
21/07:00am 22.5 ENE 5 7 1017.9 - 0.0 - Cloudy 10 - - - -
21/06:30am 22.3 ENE 6 8 1017.5 - 0.0 - Cloudy 10 - - - -
21/06:00am 21.8 ENE 5 6 1017.1 - 0.0 - Cloudy 10 - - - -
21/05:30am 21.6 ENE 4 5 1016.9 - 0.0 - Partly cloudy 10 - - - -
21/05:00am 21.7 E 5 7 1016.7 - 0.0 - Partly cloudy 10 - - - -
21/04:30am 21.0 ENE 5 8 1016.6 - 0.0 - Partly cloudy 10 - - - -
21/04:00am 20.8 ENE 4 6 1016.5 - 0.0 - Partly cloudy 10 - - - -
21/03:30am 21.2 E 5 8 1016.6 - 0.0 - Partly cloudy 10 - - - -
21/03:00am 20.7 ENE 5 7 1016.6 - 0.0 - - 10 - - - -
21/02:30am 21.8 E 7 9 1016.8 - 0.0 - Partly cloudy 10 - - - -
21/02:00am 22.3 ENE 7 9 1017.3 - 0.0 - Cloudy 10 - - - -
21/01:30am 22.4 E 6 9 1017.4 - 0.0 - Partly cloudy 10 - - - -
21/01:00am 22.3 ENE 7 9 1017.8 - 0.0 - Partly cloudy 10 - - - -
21/12:30am 22.6 E 8 11 1017.9 - 0.0 - Partly cloudy 10 - - - -
21/12:00am 22.7 E 9 11 1018.0 - 0.0 - Cloudy 10 - - - -
 
Date/Time
EDT
Temp

°C
Wind Pressure Rain
since 9am
mm
Weather Cloud Vis
km
Sea
Height
m
Swell
Dir
 
Speed
knots
Gust
knots
hPa Trend Height
m
Period
s
Dir
20/11:30pm 22.5 ENE 10 12 1018.2 - 0.0 - Cloudy 10 - - - -
20/11:00pm 22.4 ENE 8 11 1018.3 - 0.0 - Partly cloudy 10 - - - -
20/10:30pm 22.5 ENE 7 10 1018.3 - 0.0 - Partly cloudy 10 - - - -
20/10:00pm 21.7 ENE 8 9 1017.9 - 0.0 - Partly cloudy 10 - - - -
20/09:30pm 22.5 ENE 9 13 1017.4 - 0.0 - Partly cloudy 10 - - - -
20/09:00pm 22.6 E 10 13 1017.1 - 0.0 - Mostly cloudy 10 - - - -
20/08:30pm 22.3 ENE 7 10 1016.9 - 0.0 - Partly cloudy 10 - - - -
20/08:00pm 22.1 ENE 8 10 1016.6 - 0.0 - Partly cloudy 10 - - - -
20/07:30pm 22.9 E 8 12 1016.2 - 0.0 - Partly cloudy 10 - - - -
20/07:00pm 23.5 E 9 12 1015.9 - 0.0 - Cloudy 10 - - - -
20/06:30pm 23.9 ENE 10 14 1015.5 - 0.0 - Cloudy 10 - - - -
20/06:00pm 24.2 ENE 12 14 1014.9 - 0.0 - Partly cloudy 10 - - - -
20/05:30pm 24.9 ENE 13 17 1014.6 - 0.0 - Partly cloudy 10 - - - -
20/05:00pm 25.2 ENE 14 18 1014.4 - 0.0 - Partly cloudy 10 - - - -
20/04:30pm 24.5 ENE 12 16 1014.7 - 0.0 - Cloudy 10 - - - -
20/04:00pm 24.5 E 10 15 1014.9 - 0.0 - Partly cloudy 10 - - - -
20/03:30pm 26.0 E 12 17 1015.2 - 0.0 - Partly cloudy 10 - - - -
20/03:00pm 26.2 E 11 15 1015.4 - 0.0 - Partly cloudy 10 - - - -
20/02:30pm 25.1 E 10 15 1015.7 - 0.0 - Partly cloudy 10 - - - -
20/02:00pm 26.0 ESE 12 16 1015.9 - 0.0 - Partly cloudy 10 - - - -
20/01:30pm 26.5 E 11 16 1016.1 - 0.0 - Partly cloudy 10 - - - -
20/01:00pm 26.0 ENE 10 15 1016.4 - 0.0 - Partly cloudy 10 - - - -
20/12:30pm 26.0 E 11 16 1016.7 - 0.0 - Partly cloudy 10 - - - -
20/12:00pm 26.4 E 11 13 1016.9 - 0.0 - Cloudy 10 - - - -
20/11:30am 24.5 E 10 13 1017.1 - 0.0 - Partly cloudy 10 - - - -
20/11:00am 25.0 E 11 16 1016.9 - 0.0 - Partly cloudy 10 - - - -
20/10:30am 25.6 E 11 15 1017.0 - 0.0 - Cloudy 10 - - - -
20/10:00am 25.6 E 10 13 1016.8 - 0.0 - Partly cloudy 10 - - - -
20/09:30am 24.2 ESE 8 12 1016.8 - 0.0 - Partly cloudy 10 - - - -
20/09:00am 24.3 ESE 8 12 1016.7 - 0.2 - Cloudy 10 - - - -
20/08:30am 24.6 ESE 9 12 1016.4 - 0.2 - Partly cloudy 10 - - - -
20/08:00am 24.3 E 7 9 1016.3 - 0.2 - Partly cloudy 10 - - - -
20/07:30am 23.7 E 6 9 1016.0 - 0.2 - Cloudy 10 - - - -
20/07:00am 23.2 ESE 5 7 1015.7 - 0.2 - Partly cloudy 10 - - - -
20/06:30am 22.7 ESE 6 9 1015.3 - 0.2 - Cloudy 10 - - - -
20/06:00am 22.2 SE 7 9 1015.0 - 0.2 - Partly cloudy 10 - - - -
20/05:30am 22.2 SE 6 9 1014.7 - 0.2 - Partly cloudy 10 - - - -
20/05:00am 21.9 SE 7 9 1014.4 - 0.2 - Partly cloudy 10 - - - -
20/04:30am 21.8 SE 6 9 1014.4 - 0.2 - Partly cloudy 10 - - - -
20/04:00am 22.0 SE 5 8 1014.2 - 0.2 - Partly cloudy 10 - - - -
20/03:30am 22.1 SE 8 11 1014.0 - 0.2 - Partly cloudy 10 - - - -
20/03:00am 22.6 SE 6 8 1014.3 - 0.2 - Cloudy 10 - - - -

Other Formats:

Comma delimited format used in spreadsheet applications
http://www.bom.gov.au/fwo/IDN60701/IDN60701.94596.axf

JavaScript Object Notation format (JSON) in row-major order
http://www.bom.gov.au/fwo/IDN60701/IDN60701.94596.json